createdAt,value
2023-02-23T00:08:43.406Z,8.76
2023-02-23T00:18:43.454Z,8.87
2023-02-23T00:28:43.769Z,8.83
2023-02-23T00:38:43.834Z,8.71
2023-02-23T00:48:44.146Z,8.79
2023-02-23T00:58:44.178Z,8.48
2023-02-23T01:08:45.430Z,8.53
2023-02-23T01:18:45.040Z,8.26
2023-02-23T01:28:44.983Z,8.37
2023-02-23T01:38:45.035Z,8.43
2023-02-23T01:48:46.270Z,8.40
2023-02-23T01:58:45.509Z,8.25
2023-02-23T02:08:46.841Z,7.83
2023-02-23T02:18:45.878Z,7.57
2023-02-23T02:28:47.116Z,7.61
2023-02-23T02:38:46.345Z,7.72
2023-02-23T02:48:46.674Z,7.75
2023-02-23T02:58:46.804Z,7.80
2023-02-23T03:08:46.944Z,7.55
2023-02-23T03:18:46.965Z,7.50
2023-02-23T03:28:47.204Z,7.46
2023-02-23T03:38:47.428Z,7.52
2023-02-23T03:48:47.718Z,7.58
2023-02-23T03:58:47.856Z,7.48
2023-02-23T04:08:47.912Z,7.68
2023-02-23T04:18:48.151Z,7.77
2023-02-23T04:28:48.399Z,7.89
2023-02-23T04:38:48.651Z,7.86
2023-02-23T04:48:48.912Z,7.89
2023-02-23T04:58:49.154Z,7.86
2023-02-23T05:08:49.578Z,7.92
2023-02-23T05:18:49.626Z,8.15
2023-02-23T05:28:49.979Z,8.20
2023-02-23T05:38:50.017Z,8.20
2023-02-23T05:48:50.286Z,8.23
2023-02-23T05:58:50.181Z,8.26
2023-02-23T06:08:50.487Z,8.00
2023-02-23T06:18:50.512Z,7.75
2023-02-23T06:28:50.851Z,7.53
2023-02-23T06:38:50.868Z,7.50
2023-02-23T06:48:51.124Z,7.46
2023-02-23T06:58:51.375Z,7.55
2023-02-23T07:08:52.617Z,7.60
2023-02-23T07:18:51.844Z,7.60
2023-02-23T07:28:54.146Z,7.64
2023-02-23T07:38:52.614Z,7.46
2023-02-23T07:48:54.488Z,7.69
2023-02-23T07:58:52.520Z,8.00
2023-02-23T08:08:52.818Z,9.29
2023-02-23T08:18:52.853Z,8.86
2023-02-23T08:28:53.180Z,9.13
2023-02-23T08:38:53.209Z,9.83
2023-02-23T08:48:53.545Z,10.33
2023-02-23T08:58:53.572Z,11.69
2023-02-23T09:08:53.913Z,11.80
2023-02-23T09:18:53.949Z,10.33
2023-02-23T09:28:54.301Z,10.32
2023-02-23T09:38:54.334Z,10.40
2023-02-23T09:48:54.659Z,10.64
2023-02-23T09:58:54.701Z,11.42
2023-02-23T10:08:54.836Z,10.99
2023-02-23T10:18:54.909Z,10.84
2023-02-23T10:28:54.992Z,11.24
2023-02-23T10:38:55.017Z,11.27
2023-02-23T10:48:55.264Z,12.14
2023-02-23T10:58:55.483Z,13.48
2023-02-23T11:08:55.856Z,11.60
2023-02-23T11:18:55.918Z,13.81
2023-02-23T11:28:56.213Z,15.51
2023-02-23T11:38:56.226Z,14.25
2023-02-23T11:48:56.576Z,13.96
2023-02-23T11:58:56.612Z,14.24
2023-02-23T12:08:57.862Z,14.65
2023-02-23T12:18:57.161Z,15.49
2023-02-23T12:28:57.221Z,15.71
2023-02-23T12:38:57.234Z,16.15
2023-02-23T12:48:57.581Z,15.93
2023-02-23T12:58:57.661Z,16.38
2023-02-23T13:08:57.748Z,16.78
2023-02-23T13:18:57.799Z,17.11
2023-02-23T13:28:58.132Z,17.36
2023-02-23T13:38:59.874Z,17.38
2023-02-23T13:49:00.514Z,16.60
2023-02-23T13:58:58.466Z,16.12
2023-02-23T14:08:58.746Z,16.04
2023-02-23T14:18:58.769Z,15.97
2023-02-23T14:28:59.123Z,16.86
2023-02-23T14:38:59.151Z,17.06
2023-02-23T14:48:59.392Z,16.81
2023-02-23T14:58:59.645Z,15.84
2023-02-23T15:08:59.959Z,15.36
2023-02-23T15:18:59.995Z,15.02
2023-02-23T15:29:00.225Z,14.80
2023-02-23T15:39:00.476Z,14.47
2023-02-23T15:49:00.815Z,14.03
2023-02-23T15:59:00.882Z,13.69
2023-02-23T16:09:01.025Z,13.33
2023-02-23T16:19:01.101Z,13.12
2023-02-23T16:29:01.553Z,12.85
2023-02-23T16:39:01.591Z,12.65
2023-02-23T16:49:02.141Z,12.52
2023-02-23T16:59:04.272Z,12.19
2023-02-23T17:09:02.418Z,12.20
2023-02-23T17:19:02.386Z,12.16
2023-02-23T17:29:02.593Z,11.60
2023-02-23T17:39:02.768Z,11.14
2023-02-23T17:49:03.070Z,10.96
2023-02-23T17:59:03.357Z,10.79
2023-02-23T18:09:08.126Z,10.33
2023-02-23T18:19:03.720Z,9.81
2023-02-23T18:29:03.870Z,9.38
2023-02-23T18:39:04.032Z,9.40
2023-02-23T18:49:04.326Z,9.42
2023-02-23T18:59:04.361Z,9.26
2023-02-23T19:09:04.685Z,9.02
2023-02-23T19:19:04.708Z,8.86
2023-02-23T19:29:06.413Z,8.36
2023-02-23T19:39:05.162Z,8.19
2023-02-23T19:49:06.267Z,7.98
2023-02-23T19:59:05.146Z,7.83
2023-02-23T20:09:05.218Z,7.64
2023-02-23T20:19:06.185Z,7.55
2023-02-23T20:29:06.081Z,7.43
2023-02-23T20:39:06.113Z,7.13
2023-02-23T20:49:06.261Z,6.85
2023-02-23T20:59:06.231Z,6.80
2023-02-23T21:09:06.280Z,6.74
2023-02-23T21:19:06.588Z,6.41
2023-02-23T21:29:07.594Z,6.30
2023-02-23T21:39:06.783Z,6.12
2023-02-23T21:49:06.915Z,6.27
2023-02-23T21:59:07.034Z,6.44
2023-02-23T22:09:07.141Z,7.37
2023-02-23T22:19:07.211Z,8.20
2023-02-23T22:29:07.985Z,8.28
2023-02-23T22:39:07.522Z,8.11
2023-02-23T22:49:07.562Z,7.74
2023-02-23T22:59:07.793Z,7.10
2023-02-23T23:09:08.047Z,6.94
2023-02-23T23:19:08.271Z,6.64
2023-02-23T23:29:08.616Z,7.27
2023-02-23T23:39:08.661Z,6.92
2023-02-23T23:49:08.973Z,6.54
2023-02-23T23:59:09.005Z,6.01
